North Salt Lake
Center St & Main St, North Salt Lake
Last Weather Update:12/30/2011 11:00:00 PM
Date
ETo
ETc
Rain
Irrigation
Req
Temp
Max
Temp
Min
Temp
Avg
Avg RH
Avg Wind
Avg Solar
inches
inches
incehs
inches
F
F
F
%
%
watts/m2
11/01/2011 0.03" 0.00" 0.46" -0.37" 50.1° 29.3° 40.2° 72.3% 3.4 MPH 66.3w/m2
11/02/2011 0.06" 0.00" 0.00" 0.00" 45.2° 25.2° 34.0° 65.5% 2.0 MPH 148.6w/m2
11/03/2011 0.08" 0.00" 0.00" 0.00" 56.3° 27.2° 42.7° 26.8% 4.2 MPH 135.1w/m2
11/04/2011 0.10" 0.00" 0.14" -0.11" 61.6° 31.8° 48.2° 98.0% 5.7 MPH 113.8w/m2
11/05/2011 0.03" 0.00" 0.34" -0.27" 36.2° 29.3° 32.3° 61.3% 1.9 MPH 60.8w/m2
11/06/2011 0.05" 0.00" 0.00" 0.00" 44.5° 30.0° 36.4° 74.2% 3.7 MPH 124.2w/m2
11/07/2011 0.04" 0.00" 0.00" 0.00" 44.4° 29.2° 35.5° 81.6% 2.2 MPH 96.2w/m2
11/08/2011 0.04" 0.00" 0.00" 0.00" 40.1° 24.6° 31.6° 78.0% 1.8 MPH 118.4w/m2
11/09/2011 0.05" 0.00" 0.00" 0.00" 43.2° 22.6° 31.9° 74.5% 1.6 MPH 134.0w/m2
11/10/2011 0.05" 0.00" 0.00" 0.00" 48.8° 24.9° 34.4° 77.6% 1.6 MPH 132.8w/m2
11/11/2011 0.05" 0.00" 0.00" 0.00" 51.4° 24.4° 37.6° 28.5% 2.2 MPH 99.9w/m2
11/12/2011 0.04" 0.00" 0.07" -0.06" 51.0° 31.5° 41.1° 90.8% 5.5 MPH 9.9w/m2
11/13/2011 0.04" 0.00" 0.40" -0.32" 50.2° 32.8° 40.2° 54.0% 1.9 MPH 85.5w/m2
11/14/2011 0.07" 0.00" 0.00" 0.00" 54.8° 37.8° 46.4° 30.8% 3.8 MPH 111.1w/m2
11/15/2011 0.04" 0.00" 0.00" 0.00" 46.8° 33.0° 40.8° 50.5% 2.3 MPH 85.0w/m2
11/16/2011 0.05" 0.00" 0.00" 0.00" 45.2° 26.8° 36.6° 50.4% 2.4 MPH 118.7w/m2
11/17/2011 0.08" 0.00" 0.00" 0.00" 57.0° 30.6° 46.3° 30.6% 6.0 MPH 65.6w/m2
11/18/2011 0.06" 0.00" 0.12" -0.10" 53.7° 32.0° 43.6° 94.8% 6.4 MPH 27.1w/m2
11/19/2011 0.03" 0.00" 0.17" -0.14" 36.9° 27.8° 32.4° 86.1% 1.4 MPH 86.6w/m2
11/20/2011 0.02" 0.00" 0.00" 0.00" 39.0° 24.5° 31.9° 92.2% 1.1 MPH 47.2w/m2
11/21/2011 0.02" 0.00" 0.14" -0.11" 46.1° 32.9° 38.0° 95.1% 1.8 MPH 47.8w/m2
11/22/2011 0.06" 0.00" 0.01" -0.01" 54.2° 32.0° 43.3° 57.9% 3.5 MPH 98.6w/m2
11/23/2011 0.07" 0.00" 0.00" 0.00" 59.2° 36.7° 50.4° 25.0% 4.2 MPH 101.0w/m2
11/24/2011 0.09" 0.00" 0.00" 0.00" 59.0° 47.7° 53.9° 39.4% 6.3 MPH 65.2w/m2
11/25/2011 0.04" 0.00" 0.00" 0.00" 51.0° 29.7° 41.6° 36.1% 4.3 MPH 47.5w/m2
11/26/2011 0.04" 0.00" 0.00" 0.00" 41.1° 23.3° 31.4° 53.7% 2.0 MPH 113.3w/m2
11/27/2011 0.04" 0.00" 0.00" 0.00" 47.5° 23.6° 33.6° 73.6% 1.7 MPH 110.3w/m2
11/28/2011 0.03" 0.00" 0.00" 0.00" 45.0° 27.2° 35.2° 82.9% 1.9 MPH 73.2w/m2
11/29/2011 0.04" 0.00" 0.00" 0.00" 50.0° 25.9° 36.3° 82.7% 1.7 MPH 100.2w/m2
11/30/2011 0.02" 0.00" 0.01" -0.01" 43.3° 29.3° 35.6° 68.9% 2.1 MPH 64.2w/m2
Totals: 1.48" 0.00" 1.86" -1.49" 61.6° 22.6° 38.8° 64.5% 3.0 MPH 89.6w/m2